createdAt,value
2023-04-09T00:00:24.148Z,45.74
2023-04-09T00:02:51.233Z,45.80
2023-04-09T00:05:18.072Z,46.03
2023-04-09T00:07:44.815Z,45.95
2023-04-09T00:10:11.956Z,45.81
2023-04-09T00:12:38.755Z,46.46
2023-04-09T00:15:06.411Z,46.22
2023-04-09T00:17:33.246Z,46.32
2023-04-09T00:20:00.398Z,46.54
2023-04-09T00:22:27.156Z,46.39
2023-04-09T00:24:53.973Z,46.92
2023-04-09T00:27:21.086Z,47.01
2023-04-09T00:29:47.910Z,47.31
2023-04-09T00:32:14.752Z,47.49
2023-04-09T00:34:41.466Z,47.62
2023-04-09T00:37:08.219Z,48.44
2023-04-09T00:39:34.974Z,47.56
2023-04-09T00:42:04.920Z,48.50
2023-04-09T00:44:31.689Z,48.42
2023-04-09T00:47:00.096Z,48.43
2023-04-09T00:49:27.089Z,48.34
2023-04-09T00:51:54.098Z,48.45
2023-04-09T00:54:21.264Z,48.48
2023-04-09T00:56:48.085Z,48.51
2023-04-09T00:59:15.482Z,48.65
2023-04-09T01:01:42.330Z,48.57
2023-04-09T01:04:09.184Z,48.59
2023-04-09T01:06:52.738Z,48.41
2023-04-09T01:09:31.117Z,48.47
2023-04-09T01:12:27.628Z,48.64
2023-04-09T01:15:06.425Z,48.65
2023-04-09T01:17:56.872Z,48.57
2023-04-09T01:20:35.021Z,48.62
2023-04-09T01:23:10.708Z,48.61
2023-04-09T01:26:17.227Z,48.88
2023-04-09T01:28:55.088Z,48.74
2023-04-09T01:31:28.410Z,48.98
2023-04-09T01:33:55.984Z,48.95
2023-04-09T01:36:25.867Z,48.92
2023-04-09T01:38:54.405Z,48.83
2023-04-09T01:41:23.251Z,48.77
2023-04-09T01:43:51.378Z,48.80
2023-04-09T01:46:19.549Z,48.90
2023-04-09T01:48:46.865Z,48.62
2023-04-09T01:51:14.398Z,48.63
2023-04-09T01:53:42.129Z,48.49
2023-04-09T01:56:09.654Z,48.58
2023-04-09T01:58:36.614Z,48.81
2023-04-09T02:01:20.956Z,48.75
2023-04-09T02:03:54.676Z,48.92
2023-04-09T02:06:46.525Z,49.16
2023-04-09T02:09:17.021Z,49.04
2023-04-09T02:11:46.329Z,49.17
2023-04-09T02:14:13.562Z,49.02
2023-04-09T02:16:41.508Z,48.92
2023-04-09T02:19:08.482Z,48.91
2023-04-09T02:21:35.242Z,49.26
2023-04-09T02:24:02.009Z,49.26
2023-04-09T02:26:28.834Z,49.12
2023-04-09T02:28:55.653Z,49.48
2023-04-09T02:31:22.449Z,49.27
2023-04-09T02:33:49.204Z,49.14
2023-04-09T02:36:16.003Z,49.09
2023-04-09T02:38:43.297Z,49.13
2023-04-09T02:41:10.424Z,48.86
2023-04-09T02:43:37.408Z,49.14
2023-04-09T02:46:04.506Z,49.08
2023-04-09T02:48:31.540Z,48.93
2023-04-09T02:50:58.485Z,49.34
2023-04-09T02:53:25.943Z,49.36
2023-04-09T02:55:52.833Z,49.59
2023-04-09T02:58:19.597Z,49.60
2023-04-09T03:00:46.401Z,49.26
2023-04-09T03:03:13.347Z,49.53
2023-04-09T03:05:40.425Z,49.42
2023-04-09T03:08:07.579Z,49.81
2023-04-09T03:10:34.363Z,49.81
2023-04-09T03:13:01.132Z,49.75
2023-04-09T03:15:27.880Z,49.93
2023-04-09T03:17:54.599Z,49.93
2023-04-09T03:20:21.361Z,49.97
2023-04-09T03:22:48.116Z,50.27
2023-04-09T03:25:23.551Z,49.98
2023-04-09T03:27:54.239Z,49.85
2023-04-09T03:30:30.896Z,49.68
2023-04-09T03:32:59.626Z,49.68
2023-04-09T03:35:28.534Z,49.70
2023-04-09T03:37:58.860Z,49.72
2023-04-09T03:40:26.087Z,49.86
2023-04-09T03:42:52.866Z,49.61
2023-04-09T03:45:20.030Z,49.57
2023-04-09T03:47:49.607Z,49.59
2023-04-09T03:50:17.967Z,49.65
2023-04-09T03:52:49.533Z,49.61
2023-04-09T03:55:16.628Z,49.65
2023-04-09T03:57:43.563Z,49.80
2023-04-09T04:00:14.846Z,49.67
2023-04-09T04:02:51.643Z,49.92
2023-04-09T04:05:31.229Z,49.86
2023-04-09T04:08:00.979Z,49.98
2023-04-09T04:10:29.496Z,49.99
2023-04-09T04:12:56.291Z,49.78
2023-04-09T04:15:33.147Z,49.69
2023-04-09T04:17:59.988Z,49.63
2023-04-09T04:20:41.090Z,49.51
2023-04-09T04:23:12.254Z,49.68
2023-04-09T04:25:47.300Z,49.40
2023-04-09T04:28:20.919Z,49.40
2023-04-09T04:30:47.732Z,49.52
2023-04-09T04:33:14.513Z,49.80
2023-04-09T04:35:51.835Z,49.89
2023-04-09T04:38:34.827Z,50.04
2023-04-09T04:41:06.041Z,49.96
2023-04-09T04:43:36.736Z,50.06
2023-04-09T04:46:03.778Z,50.16
2023-04-09T04:48:32.069Z,50.26
2023-04-09T04:51:01.136Z,50.17
2023-04-09T04:53:34.844Z,50.23
2023-04-09T04:56:14.477Z,50.54
2023-04-09T04:58:49.813Z,50.30
2023-04-09T05:01:19.241Z,50.36
2023-04-09T05:03:47.134Z,50.33
2023-04-09T05:06:29.753Z,50.58
2023-04-09T05:08:58.302Z,51.05
2023-04-09T05:11:28.581Z,51.08
2023-04-09T05:13:55.568Z,50.95
2023-04-09T05:16:23.614Z,50.62
2023-04-09T05:18:58.723Z,50.86
2023-04-09T05:21:25.843Z,50.85
2023-04-09T05:23:54.573Z,50.79
2023-04-09T05:26:21.829Z,50.38
2023-04-09T05:28:53.507Z,50.52
2023-04-09T05:31:22.456Z,50.39
2023-04-09T05:33:55.634Z,50.42
2023-04-09T05:36:32.379Z,50.90
2023-04-09T05:38:59.998Z,50.95
2023-04-09T05:41:26.707Z,50.85
2023-04-09T05:44:07.174Z,51.03
2023-04-09T05:46:37.712Z,50.93
2023-04-09T05:49:04.931Z,50.33
2023-04-09T05:51:33.623Z,50.19
2023-04-09T05:54:01.692Z,50.28
2023-04-09T05:56:33.043Z,49.96
2023-04-09T05:59:00.981Z,50.03
2023-04-09T06:01:27.759Z,50.38
2023-04-09T06:03:57.798Z,50.35
2023-04-09T06:06:25.141Z,50.27
2023-04-09T06:08:51.812Z,50.37
2023-04-09T06:11:18.674Z,50.41
2023-04-09T06:13:45.529Z,50.63
2023-04-09T06:16:12.289Z,50.51
2023-04-09T06:18:39.043Z,50.61
2023-04-09T06:21:07.349Z,50.35
2023-04-09T06:23:35.381Z,50.27
2023-04-09T06:26:02.568Z,50.50
2023-04-09T06:28:29.845Z,50.13
2023-04-09T06:30:56.593Z,49.96
2023-04-09T06:33:23.546Z,52.42
2023-04-09T06:35:50.547Z,60.64
2023-04-09T06:38:17.918Z,50.72
2023-04-09T06:40:45.324Z,52.14
2023-04-09T06:43:12.017Z,51.32
2023-04-09T06:45:49.665Z,51.06
2023-04-09T06:48:16.664Z,51.30
2023-04-09T06:50:44.363Z,50.41
2023-04-09T06:53:11.189Z,49.01
2023-04-09T06:55:37.967Z,48.64
2023-04-09T06:58:04.718Z,48.39
2023-04-09T07:00:31.487Z,48.14
2023-04-09T07:02:58.659Z,48.33
2023-04-09T07:05:25.598Z,47.54
2023-04-09T07:07:52.363Z,47.60
2023-04-09T07:10:19.154Z,47.15
2023-04-09T07:12:45.958Z,47.04
2023-04-09T07:15:12.892Z,47.53
2023-04-09T07:17:39.750Z,47.10
2023-04-09T07:20:06.967Z,45.70
2023-04-09T07:22:33.780Z,45.60
2023-04-09T07:25:00.693Z,46.80
2023-04-09T07:27:28.729Z,44.82
2023-04-09T07:29:59.502Z,44.85
2023-04-09T07:32:28.233Z,44.37
2023-04-09T07:34:55.899Z,44.12
2023-04-09T07:37:23.261Z,44.14
2023-04-09T07:39:51.351Z,43.92
2023-04-09T07:42:18.284Z,43.80
2023-04-09T07:44:45.035Z,43.76
2023-04-09T07:47:12.898Z,43.09
2023-04-09T07:49:39.852Z,42.98
2023-04-09T07:52:07.031Z,42.71
2023-04-09T07:54:38.160Z,42.15
2023-04-09T07:57:04.933Z,42.26
2023-04-09T07:59:31.740Z,42.66
2023-04-09T08:01:59.296Z,42.24
2023-04-09T08:04:27.272Z,42.65
2023-04-09T08:06:54.194Z,42.09
2023-04-09T08:09:21.397Z,42.25
2023-04-09T08:11:49.052Z,42.25
2023-04-09T08:14:17.442Z,42.04
2023-04-09T08:16:47.631Z,42.31
2023-04-09T08:19:16.877Z,42.46
2023-04-09T08:21:44.337Z,42.55
2023-04-09T08:24:12.029Z,42.12
2023-04-09T08:26:40.331Z,42.27
2023-04-09T08:29:08.149Z,41.89
2023-04-09T08:31:36.372Z,41.55
2023-04-09T08:34:03.506Z,41.72
2023-04-09T08:36:31.744Z,41.61
2023-04-09T08:39:00.523Z,41.37
2023-04-09T08:41:31.463Z,41.21
2023-04-09T08:43:59.898Z,41.04
2023-04-09T08:46:27.781Z,40.67
2023-04-09T08:48:55.260Z,40.69
2023-04-09T08:51:23.928Z,40.57
2023-04-09T08:54:03.627Z,39.44
2023-04-09T08:56:31.574Z,39.76
2023-04-09T08:58:58.692Z,39.14
2023-04-09T09:01:27.184Z,38.96
2023-04-09T09:03:58.351Z,38.77
2023-04-09T09:06:28.794Z,38.84
2023-04-09T09:09:17.503Z,38.36
2023-04-09T09:11:51.041Z,38.85
2023-04-09T09:14:20.794Z,38.27
2023-04-09T09:16:56.648Z,38.20
2023-04-09T09:19:26.428Z,38.43
2023-04-09T09:22:01.812Z,37.73
2023-04-09T09:24:28.947Z,37.43
2023-04-09T09:26:57.406Z,36.59
2023-04-09T09:29:24.738Z,36.47
2023-04-09T09:31:53.484Z,35.96
2023-04-09T09:34:22.696Z,35.64
2023-04-09T09:36:49.728Z,37.23
2023-04-09T09:39:17.700Z,37.88
2023-04-09T09:41:46.510Z,36.90
2023-04-09T09:44:31.905Z,34.60
2023-04-09T09:46:59.578Z,34.00
2023-04-09T09:49:26.331Z,34.64
2023-04-09T09:51:56.824Z,35.76
2023-04-09T09:54:26.297Z,36.14
2023-04-09T09:56:58.364Z,36.95
2023-04-09T09:59:30.406Z,36.78
2023-04-09T10:01:59.945Z,37.49
2023-04-09T10:04:29.365Z,37.85
2023-04-09T10:06:57.887Z,39.43
2023-04-09T10:09:28.149Z,39.90
2023-04-09T10:11:56.938Z,40.46
2023-04-09T10:14:24.453Z,41.30
2023-04-09T10:16:51.586Z,40.13
2023-04-09T10:19:18.862Z,36.56
2023-04-09T10:21:54.796Z,35.39
2023-04-09T10:24:22.172Z,37.03
2023-04-09T10:26:48.952Z,35.02
2023-04-09T10:29:16.800Z,35.17
2023-04-09T10:32:06.898Z,35.60
2023-04-09T10:34:42.907Z,34.50
2023-04-09T10:37:14.830Z,35.99
2023-04-09T10:39:44.788Z,37.40
2023-04-09T10:42:18.142Z,37.58
2023-04-09T10:44:45.568Z,38.63
2023-04-09T10:47:30.951Z,38.25
2023-04-09T10:49:57.702Z,37.61
2023-04-09T10:52:30.442Z,38.39
2023-04-09T10:54:57.219Z,39.23
2023-04-09T10:57:24.602Z,39.68
2023-04-09T10:59:53.852Z,39.54
2023-04-09T11:02:26.846Z,38.93
2023-04-09T11:04:59.492Z,38.59
2023-04-09T11:07:29.603Z,38.19
2023-04-09T11:09:56.280Z,37.19
2023-04-09T11:12:23.029Z,37.64
2023-04-09T11:14:49.832Z,37.60
2023-04-09T11:17:18.332Z,38.31
2023-04-09T11:19:45.337Z,39.53
2023-04-09T11:22:13.034Z,40.05
2023-04-09T11:24:43.740Z,40.59
2023-04-09T11:27:10.705Z,41.25
2023-04-09T11:29:37.469Z,41.61
2023-04-09T11:32:07.814Z,41.24
2023-04-09T11:34:34.608Z,40.87
2023-04-09T11:37:07.044Z,40.13
2023-04-09T11:39:37.254Z,39.84
2023-04-09T11:42:04.079Z,38.76
2023-04-09T11:44:31.134Z,38.37
2023-04-09T11:46:59.853Z,36.64
2023-04-09T11:49:26.823Z,36.60
2023-04-09T11:51:53.671Z,36.76
2023-04-09T11:54:20.474Z,36.32
2023-04-09T11:56:55.715Z,37.65
2023-04-09T11:59:22.711Z,37.52
2023-04-09T12:01:51.321Z,37.60
2023-04-09T12:04:21.744Z,38.39
2023-04-09T12:06:48.949Z,39.13
2023-04-09T12:09:16.361Z,39.67
2023-04-09T12:11:44.469Z,41.09
2023-04-09T12:14:18.879Z,41.78
2023-04-09T12:16:45.853Z,40.53
2023-04-09T12:19:13.739Z,40.21
2023-04-09T12:21:51.175Z,40.44
2023-04-09T12:24:19.208Z,40.81
2023-04-09T12:26:46.912Z,40.26
2023-04-09T12:29:15.904Z,41.07
2023-04-09T12:31:43.311Z,40.86
2023-04-09T12:34:10.392Z,40.78
2023-04-09T12:36:39.134Z,41.24
2023-04-09T12:39:05.983Z,40.13
2023-04-09T12:41:32.847Z,39.59
2023-04-09T12:44:00.023Z,38.66
2023-04-09T12:46:28.287Z,37.15
2023-04-09T12:48:55.032Z,37.47
2023-04-09T12:51:21.999Z,38.63
2023-04-09T12:53:48.777Z,39.21
2023-04-09T12:56:15.525Z,39.99
2023-04-09T12:58:42.314Z,39.69
2023-04-09T13:01:09.086Z,39.40
2023-04-09T13:03:36.347Z,39.39
2023-04-09T13:06:03.470Z,40.01
2023-04-09T13:08:31.120Z,40.04
2023-04-09T13:10:57.922Z,39.00
2023-04-09T13:13:25.226Z,39.52
2023-04-09T13:15:52.169Z,39.72
2023-04-09T13:18:18.920Z,39.65
2023-04-09T13:20:45.708Z,39.02
2023-04-09T13:23:12.519Z,40.57
2023-04-09T13:25:39.440Z,40.59
2023-04-09T13:28:06.515Z,39.46
2023-04-09T13:30:33.414Z,39.81
2023-04-09T13:33:00.830Z,39.79
2023-04-09T13:35:27.909Z,40.18
2023-04-09T13:37:54.689Z,40.55
2023-04-09T13:40:21.400Z,40.92
2023-04-09T13:42:48.142Z,40.46
2023-04-09T13:45:14.953Z,40.31
2023-04-09T13:47:42.994Z,40.69
2023-04-09T13:50:10.647Z,41.21
2023-04-09T13:52:37.379Z,41.80
2023-04-09T13:55:04.862Z,41.64
2023-04-09T13:57:31.652Z,42.38
2023-04-09T14:00:01.923Z,42.61
2023-04-09T14:02:32.472Z,41.95
2023-04-09T14:04:59.923Z,41.83
2023-04-09T14:07:26.726Z,42.00
2023-04-09T14:09:53.487Z,42.04
2023-04-09T14:12:20.487Z,42.11
2023-04-09T14:14:47.259Z,42.45
2023-04-09T14:17:14.048Z,43.26
2023-04-09T14:19:40.898Z,42.99
2023-04-09T14:22:08.946Z,42.95
2023-04-09T14:24:40.054Z,42.76
2023-04-09T14:27:07.775Z,42.65
2023-04-09T14:29:35.522Z,42.79
2023-04-09T14:32:02.471Z,42.98
2023-04-09T14:34:32.126Z,42.81
2023-04-09T14:36:58.869Z,42.76
2023-04-09T14:39:25.925Z,42.48
2023-04-09T14:41:52.639Z,42.75
2023-04-09T14:44:19.485Z,42.65
2023-04-09T14:46:46.343Z,42.51
2023-04-09T14:49:13.209Z,42.91
2023-04-09T14:51:39.936Z,42.83
2023-04-09T14:54:06.812Z,43.19
2023-04-09T14:56:33.657Z,43.03
2023-04-09T14:59:00.635Z,43.45
2023-04-09T15:01:28.042Z,43.30
2023-04-09T15:03:55.407Z,43.82
2023-04-09T15:06:22.602Z,43.86
2023-04-09T15:08:49.423Z,44.21
2023-04-09T15:11:17.428Z,43.86
2023-04-09T15:13:44.361Z,43.77
2023-04-09T15:16:11.704Z,43.95
2023-04-09T15:18:38.513Z,44.01
2023-04-09T15:21:05.593Z,46.09
2023-04-09T15:23:32.383Z,45.44
2023-04-09T15:25:59.132Z,44.08
2023-04-09T15:28:25.905Z,44.20
2023-04-09T15:30:54.894Z,43.00
2023-04-09T15:33:21.599Z,43.05
2023-04-09T15:35:48.347Z,44.00
2023-04-09T15:38:31.797Z,43.78
2023-04-09T15:40:58.678Z,43.19
2023-04-09T15:43:25.527Z,43.33
2023-04-09T15:45:52.448Z,43.49
2023-04-09T15:48:19.444Z,43.66
2023-04-09T15:50:46.754Z,44.33
2023-04-09T15:53:15.100Z,44.38
2023-04-09T15:55:42.188Z,44.00
2023-04-09T15:58:19.004Z,43.34
2023-04-09T16:01:20.052Z,43.86
2023-04-09T16:04:23.540Z,44.29
2023-04-09T16:07:07.770Z,44.44
2023-04-09T16:09:34.606Z,44.49
2023-04-09T16:12:01.620Z,44.97
2023-04-09T16:14:30.458Z,44.86
2023-04-09T16:16:57.390Z,45.15
2023-04-09T16:19:25.164Z,47.42
2023-04-09T16:21:53.360Z,44.70
2023-04-09T16:24:20.102Z,44.89
2023-04-09T16:26:46.900Z,44.96
2023-04-09T16:29:13.741Z,45.45
2023-04-09T16:31:43.451Z,48.58
2023-04-09T16:34:10.308Z,46.32
2023-04-09T16:36:37.194Z,46.88
2023-04-09T16:39:05.033Z,47.98
2023-04-09T16:41:33.504Z,48.37
2023-04-09T16:44:01.135Z,48.86
2023-04-09T16:46:27.965Z,49.06
2023-04-09T16:48:55.016Z,48.84
2023-04-09T16:51:21.931Z,49.25
2023-04-09T16:53:48.725Z,49.43
2023-04-09T16:56:16.764Z,49.42
2023-04-09T16:58:43.892Z,49.77
2023-04-09T17:01:10.871Z,49.69
2023-04-09T17:03:37.899Z,49.47
2023-04-09T17:06:05.046Z,49.28
2023-04-09T17:08:31.921Z,49.41
2023-04-09T17:11:02.488Z,49.21
2023-04-09T17:13:31.669Z,49.38
2023-04-09T17:15:58.404Z,49.95
2023-04-09T17:18:25.227Z,50.13
2023-04-09T17:20:52.228Z,50.42
2023-04-09T17:23:19.188Z,50.80
2023-04-09T17:25:47.140Z,50.96
2023-04-09T17:28:14.076Z,51.02
2023-04-09T17:30:41.644Z,51.05
2023-04-09T17:33:08.789Z,51.58
2023-04-09T17:35:35.607Z,51.50
2023-04-09T17:38:02.454Z,51.84
2023-04-09T17:40:29.314Z,52.14
2023-04-09T17:42:56.248Z,52.65
2023-04-09T17:45:23.019Z,52.81
2023-04-09T17:47:51.154Z,52.85
2023-04-09T17:50:18.417Z,53.19
2023-04-09T17:52:45.254Z,54.18
2023-04-09T17:55:12.965Z,54.15
2023-04-09T17:57:40.981Z,53.99
2023-04-09T18:00:08.296Z,54.16
2023-04-09T18:02:46.075Z,54.64
2023-04-09T18:05:13.137Z,55.29
2023-04-09T18:07:40.042Z,55.55
2023-04-09T18:10:07.219Z,56.10
2023-04-09T18:12:33.928Z,56.73
2023-04-09T18:15:00.702Z,57.09
2023-04-09T18:17:27.537Z,57.23
2023-04-09T18:19:54.917Z,57.92
2023-04-09T18:22:21.874Z,58.24
2023-04-09T18:24:48.795Z,58.31
2023-04-09T18:27:16.290Z,58.31
2023-04-09T18:29:43.127Z,58.64
2023-04-09T18:32:09.983Z,59.03
2023-04-09T18:34:38.141Z,58.86
2023-04-09T18:37:04.949Z,58.99
2023-04-09T18:39:31.842Z,59.64
2023-04-09T18:41:58.709Z,59.77
2023-04-09T18:44:26.137Z,59.57
2023-04-09T18:46:53.003Z,59.50
2023-04-09T18:49:19.793Z,60.26
2023-04-09T18:51:47.395Z,60.17
2023-04-09T18:54:14.184Z,59.73
2023-04-09T18:56:40.895Z,60.05
2023-04-09T18:59:07.618Z,59.61
2023-04-09T19:01:34.423Z,59.34
2023-04-09T19:04:01.285Z,59.14
2023-04-09T19:06:28.346Z,58.83
2023-04-09T19:08:58.304Z,59.88
2023-04-09T19:11:25.981Z,58.93
2023-04-09T19:13:53.022Z,59.35
2023-04-09T19:16:23.093Z,60.79
2023-04-09T19:18:49.977Z,60.63
2023-04-09T19:21:17.985Z,60.15
2023-04-09T19:23:45.782Z,59.32
2023-04-09T19:26:12.626Z,59.33
2023-04-09T19:28:39.579Z,58.90
2023-04-09T19:31:08.716Z,59.15
2023-04-09T19:33:35.615Z,59.40
2023-04-09T19:36:02.481Z,59.51
2023-04-09T19:38:30.636Z,59.63
2023-04-09T19:40:57.410Z,59.78
2023-04-09T19:43:24.220Z,59.99
2023-04-09T19:45:51.200Z,60.29
2023-04-09T19:48:17.992Z,60.73
2023-04-09T19:50:45.369Z,60.90
2023-04-09T19:53:12.284Z,61.28
2023-04-09T19:55:39.217Z,61.53
2023-04-09T19:58:06.710Z,61.60
2023-04-09T20:00:34.635Z,61.63
2023-04-09T20:03:02.888Z,61.66
2023-04-09T20:05:29.865Z,61.71
2023-04-09T20:07:56.762Z,62.03
2023-04-09T20:10:23.661Z,62.28
2023-04-09T20:12:51.272Z,62.54
2023-04-09T20:15:22.081Z,63.14
2023-04-09T20:17:49.808Z,63.23
2023-04-09T20:20:20.241Z,63.24
2023-04-09T20:22:55.694Z,63.72
2023-04-09T20:25:24.153Z,64.03
2023-04-09T20:27:54.602Z,64.29
2023-04-09T20:30:21.620Z,64.16
2023-04-09T20:32:49.245Z,64.27
2023-04-09T20:35:16.434Z,64.55
2023-04-09T20:37:43.219Z,64.47
2023-04-09T20:40:12.071Z,64.20
2023-04-09T20:42:40.886Z,64.46
2023-04-09T20:45:09.116Z,64.37
2023-04-09T20:47:36.362Z,64.65
2023-04-09T20:50:03.452Z,64.58
2023-04-09T20:52:30.532Z,64.78
2023-04-09T20:54:57.814Z,63.42
2023-04-09T20:57:25.190Z,62.02
2023-04-09T20:59:53.847Z,61.77
2023-04-09T21:02:21.172Z,61.24
2023-04-09T21:04:48.158Z,61.01
2023-04-09T21:07:15.013Z,60.48
2023-04-09T21:09:41.732Z,60.87
2023-04-09T21:12:08.521Z,60.66
2023-04-09T21:14:35.536Z,61.20
2023-04-09T21:17:02.337Z,60.93
2023-04-09T21:19:29.154Z,61.08
2023-04-09T21:21:55.947Z,61.19
2023-04-09T21:24:23.982Z,61.51
2023-04-09T21:26:52.304Z,61.30
2023-04-09T21:29:21.126Z,61.37
2023-04-09T21:31:48.786Z,61.52
2023-04-09T21:34:16.084Z,61.78
2023-04-09T21:36:44.926Z,61.73
2023-04-09T21:39:12.548Z,61.90
2023-04-09T21:41:39.606Z,62.01
2023-04-09T21:44:08.697Z,62.40
2023-04-09T21:46:40.517Z,62.63
2023-04-09T21:49:07.535Z,63.33
2023-04-09T21:51:34.300Z,64.07
2023-04-09T21:54:07.930Z,64.11
2023-04-09T21:56:35.535Z,64.51
2023-04-09T21:59:03.009Z,64.64
2023-04-09T22:01:31.383Z,64.56
2023-04-09T22:03:59.693Z,64.67
2023-04-09T22:06:27.562Z,64.28
2023-04-09T22:08:56.720Z,64.17
2023-04-09T22:11:26.977Z,63.87
2023-04-09T22:13:54.426Z,63.62
2023-04-09T22:16:21.300Z,61.88
2023-04-09T22:18:48.265Z,60.14
2023-04-09T22:21:16.158Z,59.38
2023-04-09T22:23:43.697Z,59.03
2023-04-09T22:26:10.840Z,59.12
2023-04-09T22:28:38.507Z,58.50
2023-04-09T22:31:06.037Z,58.09
2023-04-09T22:33:32.928Z,58.11
2023-04-09T22:35:59.914Z,57.82
2023-04-09T22:38:26.976Z,58.07
2023-04-09T22:40:54.743Z,58.04
2023-04-09T22:43:22.572Z,57.77
2023-04-09T22:45:54.525Z,57.68
2023-04-09T22:48:22.861Z,57.82
2023-04-09T22:50:50.962Z,58.16
2023-04-09T22:53:21.775Z,58.39
2023-04-09T22:55:52.578Z,58.49
2023-04-09T22:58:19.452Z,58.80
2023-04-09T23:00:47.275Z,58.79
2023-04-09T23:03:14.475Z,58.73
2023-04-09T23:05:41.505Z,58.46
2023-04-09T23:08:08.514Z,58.48
2023-04-09T23:10:35.803Z,57.91
2023-04-09T23:13:02.713Z,57.74
2023-04-09T23:15:29.626Z,57.45
2023-04-09T23:17:56.753Z,57.42
2023-04-09T23:20:30.087Z,57.51
2023-04-09T23:23:08.924Z,57.55
2023-04-09T23:25:35.781Z,58.10
2023-04-09T23:28:02.807Z,58.33
2023-04-09T23:30:29.633Z,58.67
2023-04-09T23:32:57.698Z,58.97
2023-04-09T23:35:24.681Z,58.81
2023-04-09T23:37:51.517Z,58.45
2023-04-09T23:40:18.275Z,58.18
2023-04-09T23:42:45.437Z,58.07
2023-04-09T23:45:12.136Z,57.80
2023-04-09T23:47:38.948Z,57.64
2023-04-09T23:50:07.732Z,57.40
2023-04-09T23:52:36.890Z,57.70
2023-04-09T23:55:05.064Z,57.52
2023-04-09T23:57:31.861Z,57.61
2023-04-09T23:59:58.866Z,57.80
